sensor_id;sensor_type;location;lat;lon;timestamp;P1;durP1;ratioP1;P2;durP2;ratioP2
38717;SDS011;24468;52.128;9.278;2023-03-16T00:01:15;12.45;;;4.22;;
38717;SDS011;24468;52.128;9.278;2023-03-16T00:03:41;7.03;;;3.00;;
38717;SDS011;24468;52.128;9.278;2023-03-16T00:06:07;18.85;;;4.03;;
38717;SDS011;24468;52.128;9.278;2023-03-16T00:08:33;4.82;;;3.30;;
38717;SDS011;24468;52.128;9.278;2023-03-16T00:10:59;4.30;;;2.83;;
38717;SDS011;24468;52.128;9.278;2023-03-16T00:13:26;9.38;;;3.95;;
38717;SDS011;24468;52.128;9.278;2023-03-16T00:15:53;7.05;;;2.80;;
38717;SDS011;24468;52.128;9.278;2023-03-16T00:18:22;4.90;;;3.15;;
38717;SDS011;24468;52.128;9.278;2023-03-16T00:20:54;3.63;;;2.20;;
38717;SDS011;24468;52.128;9.278;2023-03-16T00:23:26;8.00;;;3.22;;
38717;SDS011;24468;52.128;9.278;2023-03-16T00:25:56;4.70;;;2.80;;
38717;SDS011;24468;52.128;9.278;2023-03-16T00:28:23;7.78;;;3.10;;
38717;SDS011;24468;52.128;9.278;2023-03-16T00:30:51;7.20;;;2.95;;
38717;SDS011;24468;52.128;9.278;2023-03-16T00:33:22;4.35;;;3.00;;
38717;SDS011;24468;52.128;9.278;2023-03-16T00:35:48;11.32;;;3.97;;
38717;SDS011;24468;52.128;9.278;2023-03-16T00:38:17;8.15;;;3.00;;
38717;SDS011;24468;52.128;9.278;2023-03-16T00:40:44;4.55;;;2.92;;
38717;SDS011;24468;52.128;9.278;2023-03-16T00:43:11;5.78;;;3.10;;
38717;SDS011;24468;52.128;9.278;2023-03-16T00:45:42;6.47;;;3.17;;
38717;SDS011;24468;52.128;9.278;2023-03-16T00:48:08;7.05;;;2.72;;
38717;SDS011;24468;52.128;9.278;2023-03-16T00:50:35;5.70;;;2.95;;
38717;SDS011;24468;52.128;9.278;2023-03-16T00:53:01;8.43;;;3.22;;
38717;SDS011;24468;52.128;9.278;2023-03-16T00:55:27;5.63;;;2.63;;
38717;SDS011;24468;52.128;9.278;2023-03-16T00:57:53;5.25;;;2.53;;
38717;SDS011;24468;52.128;9.278;2023-03-16T01:00:19;8.00;;;3.10;;
38717;SDS011;24468;52.128;9.278;2023-03-16T01:02:45;3.00;;;2.35;;
38717;SDS011;24468;52.128;9.278;2023-03-16T01:05:12;8.75;;;2.80;;
38717;SDS011;24468;52.128;9.278;2023-03-16T01:07:39;5.50;;;2.30;;
38717;SDS011;24468;52.128;9.278;2023-03-16T01:10:05;8.95;;;2.92;;
38717;SDS011;24468;52.128;9.278;2023-03-16T01:12:34;7.07;;;2.83;;
38717;SDS011;24468;52.128;9.278;2023-03-16T01:15:00;6.25;;;2.83;;
38717;SDS011;24468;52.128;9.278;2023-03-16T01:17:25;5.05;;;2.80;;
38717;SDS011;24468;52.128;9.278;2023-03-16T01:19:51;8.07;;;3.25;;
38717;SDS011;24468;52.128;9.278;2023-03-16T01:22:17;6.97;;;2.67;;
38717;SDS011;24468;52.128;9.278;2023-03-16T01:24:43;11.00;;;3.00;;
38717;SDS011;24468;52.128;9.278;2023-03-16T01:27:09;3.35;;;2.60;;
38717;SDS011;24468;52.128;9.278;2023-03-16T01:29:36;3.30;;;2.60;;
38717;SDS011;24468;52.128;9.278;2023-03-16T01:32:03;7.45;;;3.13;;
38717;SDS011;24468;52.128;9.278;2023-03-16T01:34:29;6.85;;;2.92;;
38717;SDS011;24468;52.128;9.278;2023-03-16T01:36:55;6.15;;;3.22;;
38717;SDS011;24468;52.128;9.278;2023-03-16T01:39:21;8.00;;;3.10;;
38717;SDS011;24468;52.128;9.278;2023-03-16T01:41:47;4.88;;;2.25;;
38717;SDS011;24468;52.128;9.278;2023-03-16T01:44:20;6.97;;;2.90;;
38717;SDS011;24468;52.128;9.278;2023-03-16T01:46:54;6.72;;;2.25;;
38717;SDS011;24468;52.128;9.278;2023-03-16T01:52:07;4.53;;;2.58;;
38717;SDS011;24468;52.128;9.278;2023-03-16T01:54:41;4.43;;;1.98;;
38717;SDS011;24468;52.128;9.278;2023-03-16T01:57:13;9.35;;;3.75;;
38717;SDS011;24468;52.128;9.278;2023-03-16T02:02:15;6.75;;;2.35;;
38717;SDS011;24468;52.128;9.278;2023-03-16T02:07:25;4.88;;;2.45;;
38717;SDS011;24468;52.128;9.278;2023-03-16T02:09:57;4.75;;;2.22;;
38717;SDS011;24468;52.128;9.278;2023-03-16T02:12:26;4.55;;;2.50;;
38717;SDS011;24468;52.128;9.278;2023-03-16T02:14:53;7.88;;;2.60;;
38717;SDS011;24468;52.128;9.278;2023-03-16T02:17:20;4.38;;;2.25;;
38717;SDS011;24468;52.128;9.278;2023-03-16T02:20:05;5.78;;;2.20;;
38717;SDS011;24468;52.128;9.278;2023-03-16T02:22:47;8.65;;;2.72;;
38717;SDS011;24468;52.128;9.278;2023-03-16T02:25:18;11.55;;;3.30;;
38717;SDS011;24468;52.128;9.278;2023-03-16T02:30:39;4.22;;;2.15;;
38717;SDS011;24468;52.128;9.278;2023-03-16T02:33:05;7.68;;;2.75;;
38717;SDS011;24468;52.128;9.278;2023-03-16T02:35:31;7.90;;;2.85;;
38717;SDS011;24468;52.128;9.278;2023-03-16T02:37:57;6.80;;;2.13;;
38717;SDS011;24468;52.128;9.278;2023-03-16T02:40:31;4.30;;;2.28;;
38717;SDS011;24468;52.128;9.278;2023-03-16T02:43:04;5.20;;;2.25;;
38717;SDS011;24468;52.128;9.278;2023-03-16T02:45:35;6.88;;;2.58;;
38717;SDS011;24468;52.128;9.278;2023-03-16T02:48:29;5.05;;;2.30;;
38717;SDS011;24468;52.128;9.278;2023-03-16T02:51:07;7.68;;;2.80;;
38717;SDS011;24468;52.128;9.278;2023-03-16T02:53:34;6.13;;;2.55;;
38717;SDS011;24468;52.128;9.278;2023-03-16T02:55:59;4.88;;;2.30;;
38717;SDS011;24468;52.128;9.278;2023-03-16T02:58:26;5.43;;;3.25;;
38717;SDS011;24468;52.128;9.278;2023-03-16T03:00:52;6.43;;;2.92;;
38717;SDS011;24468;52.128;9.278;2023-03-16T03:03:18;5.90;;;2.33;;
38717;SDS011;24468;52.128;9.278;2023-03-16T03:05:44;6.35;;;1.92;;
38717;SDS011;24468;52.128;9.278;2023-03-16T03:08:10;2.63;;;2.05;;
38717;SDS011;24468;52.128;9.278;2023-03-16T03:10:36;5.15;;;2.70;;
38717;SDS011;24468;52.128;9.278;2023-03-16T03:13:02;4.32;;;2.30;;
38717;SDS011;24468;52.128;9.278;2023-03-16T03:15:27;5.53;;;2.00;;
38717;SDS011;24468;52.128;9.278;2023-03-16T03:17:53;4.28;;;2.13;;
38717;SDS011;24468;52.128;9.278;2023-03-16T03:20:18;4.18;;;2.10;;
38717;SDS011;24468;52.128;9.278;2023-03-16T03:22:46;10.50;;;2.70;;
38717;SDS011;24468;52.128;9.278;2023-03-16T03:25:16;5.35;;;1.80;;
38717;SDS011;24468;52.128;9.278;2023-03-16T03:27:44;7.75;;;2.33;;
38717;SDS011;24468;52.128;9.278;2023-03-16T03:30:13;4.38;;;2.17;;
38717;SDS011;24468;52.128;9.278;2023-03-16T03:32:43;4.13;;;2.35;;
38717;SDS011;24468;52.128;9.278;2023-03-16T03:35:09;4.40;;;2.35;;
38717;SDS011;24468;52.128;9.278;2023-03-16T03:37:41;3.55;;;2.20;;
38717;SDS011;24468;52.128;9.278;2023-03-16T03:40:08;6.72;;;2.30;;
38717;SDS011;24468;52.128;9.278;2023-03-16T03:42:37;4.65;;;2.45;;
38717;SDS011;24468;52.128;9.278;2023-03-16T03:45:03;5.88;;;2.47;;
38717;SDS011;24468;52.128;9.278;2023-03-16T03:47:30;8.63;;;2.40;;
38717;SDS011;24468;52.128;9.278;2023-03-16T03:49:55;4.78;;;2.05;;
38717;SDS011;24468;52.128;9.278;2023-03-16T03:52:21;13.68;;;2.70;;
38717;SDS011;24468;52.128;9.278;2023-03-16T03:54:46;3.80;;;2.08;;
38717;SDS011;24468;52.128;9.278;2023-03-16T03:57:12;6.60;;;2.72;;
38717;SDS011;24468;52.128;9.278;2023-03-16T03:59:37;4.85;;;2.15;;
38717;SDS011;24468;52.128;9.278;2023-03-16T04:02:08;5.40;;;2.35;;
38717;SDS011;24468;52.128;9.278;2023-03-16T04:04:34;6.45;;;2.13;;
38717;SDS011;24468;52.128;9.278;2023-03-16T04:07:00;4.05;;;2.10;;
38717;SDS011;24468;52.128;9.278;2023-03-16T04:09:26;5.60;;;2.20;;
38717;SDS011;24468;52.128;9.278;2023-03-16T04:11:52;3.38;;;2.05;;
38717;SDS011;24468;52.128;9.278;2023-03-16T04:14:17;6.75;;;2.00;;
38717;SDS011;24468;52.128;9.278;2023-03-16T04:16:43;3.63;;;2.15;;
38717;SDS011;24468;52.128;9.278;2023-03-16T04:19:09;4.68;;;2.33;;
38717;SDS011;24468;52.128;9.278;2023-03-16T04:21:35;5.90;;;2.70;;
38717;SDS011;24468;52.128;9.278;2023-03-16T04:24:01;5.90;;;3.30;;
38717;SDS011;24468;52.128;9.278;2023-03-16T04:26:29;6.40;;;2.10;;
38717;SDS011;24468;52.128;9.278;2023-03-16T04:28:56;12.23;;;3.88;;
38717;SDS011;24468;52.128;9.278;2023-03-16T04:31:22;4.63;;;3.10;;
38717;SDS011;24468;52.128;9.278;2023-03-16T04:33:49;4.60;;;2.15;;
38717;SDS011;24468;52.128;9.278;2023-03-16T04:36:14;7.85;;;3.35;;
38717;SDS011;24468;52.128;9.278;2023-03-16T04:38:40;4.95;;;2.90;;
38717;SDS011;24468;52.128;9.278;2023-03-16T04:41:06;4.07;;;2.63;;
38717;SDS011;24468;52.128;9.278;2023-03-16T04:43:31;5.65;;;1.90;;
38717;SDS011;24468;52.128;9.278;2023-03-16T04:45:58;3.22;;;2.22;;
38717;SDS011;24468;52.128;9.278;2023-03-16T04:48:26;4.40;;;2.40;;
38717;SDS011;24468;52.128;9.278;2023-03-16T04:50:53;4.30;;;2.53;;
38717;SDS011;24468;52.128;9.278;2023-03-16T04:53:19;6.30;;;2.53;;
38717;SDS011;24468;52.128;9.278;2023-03-16T04:55:45;8.05;;;1.98;;
38717;SDS011;24468;52.128;9.278;2023-03-16T04:58:11;6.38;;;2.30;;
38717;SDS011;24468;52.128;9.278;2023-03-16T05:00:37;8.10;;;2.58;;
38717;SDS011;24468;52.128;9.278;2023-03-16T05:03:04;3.50;;;2.03;;
38717;SDS011;24468;52.128;9.278;2023-03-16T05:05:30;7.22;;;2.65;;
38717;SDS011;24468;52.128;9.278;2023-03-16T05:07:56;5.22;;;2.97;;
38717;SDS011;24468;52.128;9.278;2023-03-16T05:10:21;5.32;;;2.50;;
38717;SDS011;24468;52.128;9.278;2023-03-16T05:12:47;4.47;;;2.40;;
38717;SDS011;24468;52.128;9.278;2023-03-16T05:15:13;8.85;;;2.67;;
38717;SDS011;24468;52.128;9.278;2023-03-16T05:17:39;4.10;;;2.75;;
38717;SDS011;24468;52.128;9.278;2023-03-16T05:20:06;6.22;;;2.95;;
38717;SDS011;24468;52.128;9.278;2023-03-16T05:22:36;7.28;;;2.53;;
38717;SDS011;24468;52.128;9.278;2023-03-16T05:25:04;5.95;;;3.05;;
38717;SDS011;24468;52.128;9.278;2023-03-16T05:27:30;4.82;;;2.60;;
38717;SDS011;24468;52.128;9.278;2023-03-16T05:29:56;7.65;;;3.00;;
38717;SDS011;24468;52.128;9.278;2023-03-16T05:32:21;8.15;;;2.45;;
38717;SDS011;24468;52.128;9.278;2023-03-16T05:34:47;5.53;;;3.08;;
38717;SDS011;24468;52.128;9.278;2023-03-16T05:37:12;6.60;;;2.65;;
38717;SDS011;24468;52.128;9.278;2023-03-16T05:39:38;8.13;;;2.97;;
38717;SDS011;24468;52.128;9.278;2023-03-16T05:42:03;7.10;;;3.00;;
38717;SDS011;24468;52.128;9.278;2023-03-16T05:44:30;5.45;;;3.17;;
38717;SDS011;24468;52.128;9.278;2023-03-16T05:46:57;3.72;;;2.60;;
38717;SDS011;24468;52.128;9.278;2023-03-16T05:49:22;5.90;;;2.85;;
38717;SDS011;24468;52.128;9.278;2023-03-16T05:51:48;7.75;;;3.67;;
38717;SDS011;24468;52.128;9.278;2023-03-16T05:54:14;5.22;;;3.03;;
38717;SDS011;24468;52.128;9.278;2023-03-16T05:56:40;4.32;;;2.42;;
38717;SDS011;24468;52.128;9.278;2023-03-16T05:59:05;5.95;;;2.90;;
38717;SDS011;24468;52.128;9.278;2023-03-16T06:01:31;9.70;;;2.92;;
38717;SDS011;24468;52.128;9.278;2023-03-16T06:03:58;7.13;;;3.53;;
38717;SDS011;24468;52.128;9.278;2023-03-16T06:06:26;8.68;;;2.72;;
38717;SDS011;24468;52.128;9.278;2023-03-16T06:08:52;6.05;;;3.22;;
38717;SDS011;24468;52.128;9.278;2023-03-16T06:11:18;6.03;;;3.25;;
38717;SDS011;24468;52.128;9.278;2023-03-16T06:13:43;10.02;;;3.58;;
38717;SDS011;24468;52.128;9.278;2023-03-16T06:16:09;7.20;;;3.88;;
38717;SDS011;24468;52.128;9.278;2023-03-16T06:18:38;8.55;;;3.80;;
38717;SDS011;24468;52.128;9.278;2023-03-16T06:21:04;8.40;;;3.17;;
38717;SDS011;24468;52.128;9.278;2023-03-16T06:23:30;6.97;;;3.03;;
38717;SDS011;24468;52.128;9.278;2023-03-16T06:25:55;8.13;;;3.72;;
38717;SDS011;24468;52.128;9.278;2023-03-16T06:28:23;6.78;;;3.33;;
38717;SDS011;24468;52.128;9.278;2023-03-16T06:30:52;7.55;;;3.78;;
38717;SDS011;24468;52.128;9.278;2023-03-16T06:33:19;4.90;;;2.92;;
38717;SDS011;24468;52.128;9.278;2023-03-16T06:35:44;9.80;;;3.90;;
38717;SDS011;24468;52.128;9.278;2023-03-16T06:38:12;8.68;;;4.15;;
38717;SDS011;24468;52.128;9.278;2023-03-16T06:40:38;9.52;;;3.70;;
38717;SDS011;24468;52.128;9.278;2023-03-16T06:43:05;9.05;;;3.47;;
38717;SDS011;24468;52.128;9.278;2023-03-16T06:45:31;6.72;;;3.33;;
38717;SDS011;24468;52.128;9.278;2023-03-16T06:47:56;11.07;;;3.70;;
38717;SDS011;24468;52.128;9.278;2023-03-16T06:50:22;7.32;;;3.75;;
38717;SDS011;24468;52.128;9.278;2023-03-16T06:52:47;8.50;;;3.50;;
38717;SDS011;24468;52.128;9.278;2023-03-16T06:55:13;9.45;;;3.20;;
38717;SDS011;24468;52.128;9.278;2023-03-16T06:57:39;8.73;;;2.88;;
38717;SDS011;24468;52.128;9.278;2023-03-16T07:00:06;9.52;;;3.53;;
38717;SDS011;24468;52.128;9.278;2023-03-16T07:02:35;8.27;;;3.13;;
38717;SDS011;24468;52.128;9.278;2023-03-16T07:05:03;9.57;;;4.35;;
38717;SDS011;24468;52.128;9.278;2023-03-16T07:07:29;9.07;;;3.63;;
38717;SDS011;24468;52.128;9.278;2023-03-16T07:09:55;7.15;;;3.70;;
38717;SDS011;24468;52.128;9.278;2023-03-16T07:12:20;7.75;;;3.25;;
38717;SDS011;24468;52.128;9.278;2023-03-16T07:14:46;8.75;;;2.67;;
38717;SDS011;24468;52.128;9.278;2023-03-16T07:17:11;5.85;;;2.72;;
38717;SDS011;24468;52.128;9.278;2023-03-16T07:19:37;6.07;;;2.75;;
38717;SDS011;24468;52.128;9.278;2023-03-16T07:22:02;4.80;;;3.40;;
38717;SDS011;24468;52.128;9.278;2023-03-16T07:24:28;7.53;;;2.67;;
38717;SDS011;24468;52.128;9.278;2023-03-16T07:26:54;5.80;;;2.70;;
38717;SDS011;24468;52.128;9.278;2023-03-16T07:29:20;5.65;;;3.25;;
38717;SDS011;24468;52.128;9.278;2023-03-16T07:31:45;6.32;;;2.72;;
38717;SDS011;24468;52.128;9.278;2023-03-16T07:34:11;7.10;;;3.42;;
38717;SDS011;24468;52.128;9.278;2023-03-16T07:36:37;3.83;;;2.85;;
38717;SDS011;24468;52.128;9.278;2023-03-16T07:39:03;5.65;;;3.05;;
38717;SDS011;24468;52.128;9.278;2023-03-16T07:41:30;4.57;;;2.85;;
38717;SDS011;24468;52.128;9.278;2023-03-16T07:43:56;6.82;;;3.05;;
38717;SDS011;24468;52.128;9.278;2023-03-16T07:46:22;5.82;;;3.83;;
38717;SDS011;24468;52.128;9.278;2023-03-16T07:48:49;4.13;;;2.72;;
38717;SDS011;24468;52.128;9.278;2023-03-16T07:51:14;7.32;;;2.42;;
38717;SDS011;24468;52.128;9.278;2023-03-16T07:53:40;8.00;;;3.33;;
38717;SDS011;24468;52.128;9.278;2023-03-16T07:56:06;7.35;;;2.70;;
38717;SDS011;24468;52.128;9.278;2023-03-16T07:58:32;6.32;;;2.63;;
38717;SDS011;24468;52.128;9.278;2023-03-16T08:00:58;4.68;;;2.38;;
38717;SDS011;24468;52.128;9.278;2023-03-16T08:03:25;5.50;;;2.83;;
38717;SDS011;24468;52.128;9.278;2023-03-16T08:05:52;3.95;;;1.95;;
38717;SDS011;24468;52.128;9.278;2023-03-16T08:08:19;5.47;;;2.72;;
38717;SDS011;24468;52.128;9.278;2023-03-16T08:10:47;3.92;;;1.90;;
38717;SDS011;24468;52.128;9.278;2023-03-16T08:13:14;4.88;;;2.25;;
38717;SDS011;24468;52.128;9.278;2023-03-16T08:15:39;8.85;;;2.20;;
38717;SDS011;24468;52.128;9.278;2023-03-16T08:18:06;4.53;;;2.08;;
38717;SDS011;24468;52.128;9.278;2023-03-16T08:20:32;6.90;;;2.08;;
38717;SDS011;24468;52.128;9.278;2023-03-16T08:22:58;6.07;;;2.40;;
38717;SDS011;24468;52.128;9.278;2023-03-16T08:25:24;4.95;;;1.73;;
38717;SDS011;24468;52.128;9.278;2023-03-16T08:27:50;6.95;;;2.53;;
38717;SDS011;24468;52.128;9.278;2023-03-16T08:30:18;3.47;;;1.70;;
38717;SDS011;24468;52.128;9.278;2023-03-16T08:32:43;4.90;;;3.20;;
38717;SDS011;24468;52.128;9.278;2023-03-16T08:35:12;4.20;;;1.50;;
38717;SDS011;24468;52.128;9.278;2023-03-16T08:37:40;5.13;;;1.92;;
38717;SDS011;24468;52.128;9.278;2023-03-16T08:40:07;3.15;;;1.48;;
38717;SDS011;24468;52.128;9.278;2023-03-16T08:42:37;3.00;;;1.30;;
38717;SDS011;24468;52.128;9.278;2023-03-16T08:45:04;4.18;;;1.40;;
38717;SDS011;24468;52.128;9.278;2023-03-16T08:47:34;2.17;;;1.27;;
38717;SDS011;24468;52.128;9.278;2023-03-16T08:50:04;3.67;;;1.00;;
38717;SDS011;24468;52.128;9.278;2023-03-16T08:52:32;2.50;;;1.15;;
38717;SDS011;24468;52.128;9.278;2023-03-16T08:55:00;4.10;;;1.17;;
38717;SDS011;24468;52.128;9.278;2023-03-16T08:57:29;1.67;;;0.70;;
38717;SDS011;24468;52.128;9.278;2023-03-16T08:59:57;3.20;;;1.40;;
38717;SDS011;24468;52.128;9.278;2023-03-16T09:02:23;3.42;;;2.25;;
38717;SDS011;24468;52.128;9.278;2023-03-16T09:04:49;7.53;;;3.10;;
38717;SDS011;24468;52.128;9.278;2023-03-16T09:07:16;2.50;;;1.35;;
38717;SDS011;24468;52.128;9.278;2023-03-16T09:09:43;3.58;;;1.73;;
38717;SDS011;24468;52.128;9.278;2023-03-16T09:12:10;3.75;;;2.55;;
38717;SDS011;24468;52.128;9.278;2023-03-16T09:14:36;3.28;;;2.35;;
38717;SDS011;24468;52.128;9.278;2023-03-16T09:17:03;3.55;;;1.60;;
38717;SDS011;24468;52.128;9.278;2023-03-16T09:19:31;4.78;;;1.98;;
38717;SDS011;24468;52.128;9.278;2023-03-16T09:21:58;4.97;;;1.15;;
38717;SDS011;24468;52.128;9.278;2023-03-16T09:24:23;3.75;;;1.42;;
38717;SDS011;24468;52.128;9.278;2023-03-16T09:26:49;2.72;;;1.20;;
38717;SDS011;24468;52.128;9.278;2023-03-16T09:29:15;3.88;;;1.20;;
38717;SDS011;24468;52.128;9.278;2023-03-16T09:31:42;2.45;;;1.35;;
38717;SDS011;24468;52.128;9.278;2023-03-16T09:34:08;1.65;;;1.25;;
38717;SDS011;24468;52.128;9.278;2023-03-16T09:36:34;1.02;;;0.90;;
38717;SDS011;24468;52.128;9.278;2023-03-16T09:39:00;2.33;;;1.02;;
38717;SDS011;24468;52.128;9.278;2023-03-16T09:47:12;3.58;;;1.38;;
38717;SDS011;24468;52.128;9.278;2023-03-16T09:49:44;3.67;;;1.05;;
38717;SDS011;24468;52.128;9.278;2023-03-16T09:54:58;1.75;;;1.08;;
38717;SDS011;24468;52.128;9.278;2023-03-16T09:58:00;4.82;;;1.40;;
38717;SDS011;24468;52.128;9.278;2023-03-16T10:00:40;3.85;;;1.27;;
38717;SDS011;24468;52.128;9.278;2023-03-16T10:06:10;2.30;;;0.90;;
38717;SDS011;24468;52.128;9.278;2023-03-16T10:08:44;2.35;;;0.98;;
38717;SDS011;24468;52.128;9.278;2023-03-16T10:11:43;2.15;;;0.90;;
38717;SDS011;24468;52.128;9.278;2023-03-16T10:17:04;2.80;;;0.70;;
38717;SDS011;24468;52.128;9.278;2023-03-16T10:19:55;0.98;;;0.80;;
38717;SDS011;24468;52.128;9.278;2023-03-16T10:22:28;2.17;;;0.75;;
38717;SDS011;24468;52.128;9.278;2023-03-16T10:28:19;2.60;;;1.00;;
38717;SDS011;24468;52.128;9.278;2023-03-16T10:30:53;1.95;;;1.30;;
38717;SDS011;24468;52.128;9.278;2023-03-16T10:38:39;1.92;;;0.90;;
38717;SDS011;24468;52.128;9.278;2023-03-16T10:43:42;1.80;;;1.10;;
38717;SDS011;24468;52.128;9.278;2023-03-16T10:46:14;2.60;;;1.38;;
38717;SDS011;24468;52.128;9.278;2023-03-16T10:48:39;1.60;;;1.00;;
38717;SDS011;24468;52.128;9.278;2023-03-16T10:51:07;2.45;;;1.10;;
38717;SDS011;24468;52.128;9.278;2023-03-16T10:53:38;1.75;;;1.00;;
38717;SDS011;24468;52.128;9.278;2023-03-16T10:56:08;2.38;;;0.90;;
38717;SDS011;24468;52.128;9.278;2023-03-16T10:58:44;2.58;;;1.15;;
38717;SDS011;24468;52.128;9.278;2023-03-16T11:01:20;2.97;;;1.20;;
38717;SDS011;24468;52.128;9.278;2023-03-16T11:03:53;2.92;;;1.17;;
38717;SDS011;24468;52.128;9.278;2023-03-16T11:06:22;2.28;;;1.00;;
38717;SDS011;24468;52.128;9.278;2023-03-16T11:09:04;2.67;;;0.93;;
38717;SDS011;24468;52.128;9.278;2023-03-16T11:11:45;1.92;;;1.50;;
38717;SDS011;24468;52.128;9.278;2023-03-16T11:14:17;1.58;;;1.00;;
38717;SDS011;24468;52.128;9.278;2023-03-16T11:16:48;3.28;;;1.40;;
38717;SDS011;24468;52.128;9.278;2023-03-16T11:22:22;2.45;;;1.33;;
38717;SDS011;24468;52.128;9.278;2023-03-16T11:30:27;1.58;;;1.25;;
38717;SDS011;24468;52.128;9.278;2023-03-16T11:32:59;1.58;;;1.17;;
38717;SDS011;24468;52.128;9.278;2023-03-16T11:35:35;2.20;;;1.40;;
38717;SDS011;24468;52.128;9.278;2023-03-16T11:41:25;3.22;;;2.25;;
38717;SDS011;24468;52.128;9.278;2023-03-16T11:43:59;3.53;;;1.45;;
38717;SDS011;24468;52.128;9.278;2023-03-16T11:46:50;2.50;;;1.45;;
38717;SDS011;24468;52.128;9.278;2023-03-16T11:58:20;2.35;;;1.38;;
38717;SDS011;24468;52.128;9.278;2023-03-16T12:00:59;2.40;;;0.82;;
38717;SDS011;24468;52.128;9.278;2023-03-16T12:03:51;2.83;;;1.20;;
38717;SDS011;24468;52.128;9.278;2023-03-16T12:09:34;2.10;;;1.07;;
38717;SDS011;24468;52.128;9.278;2023-03-16T12:12:16;8.82;;;1.70;;
38717;SDS011;24468;52.128;9.278;2023-03-16T12:17:52;1.58;;;1.20;;
38717;SDS011;24468;52.128;9.278;2023-03-16T12:20:23;1.83;;;1.23;;
38717;SDS011;24468;52.128;9.278;2023-03-16T12:23:01;1.58;;;1.00;;
38717;SDS011;24468;52.128;9.278;2023-03-16T12:25:32;2.50;;;1.10;;
38717;SDS011;24468;52.128;9.278;2023-03-16T12:28:04;3.90;;;1.52;;
38717;SDS011;24468;52.128;9.278;2023-03-16T12:31:08;2.22;;;1.48;;
38717;SDS011;24468;52.128;9.278;2023-03-16T12:33:44;1.70;;;1.00;;
38717;SDS011;24468;52.128;9.278;2023-03-16T12:36:41;1.98;;;1.20;;
38717;SDS011;24468;52.128;9.278;2023-03-16T12:42:13;3.53;;;1.73;;
38717;SDS011;24468;52.128;9.278;2023-03-16T12:47:49;1.98;;;1.20;;
38717;SDS011;24468;52.128;9.278;2023-03-16T12:50:28;2.28;;;1.48;;
38717;SDS011;24468;52.128;9.278;2023-03-16T12:52:54;3.80;;;1.40;;
38717;SDS011;24468;52.128;9.278;2023-03-16T12:58:01;1.95;;;0.95;;
38717;SDS011;24468;52.128;9.278;2023-03-16T13:00:35;1.60;;;0.93;;
38717;SDS011;24468;52.128;9.278;2023-03-16T13:03:04;3.20;;;1.20;;
38717;SDS011;24468;52.128;9.278;2023-03-16T13:05:52;3.47;;;1.40;;
38717;SDS011;24468;52.128;9.278;2023-03-16T13:08:24;2.38;;;1.65;;
38717;SDS011;24468;52.128;9.278;2023-03-16T13:10:58;2.65;;;1.40;;
38717;SDS011;24468;52.128;9.278;2023-03-16T13:13:33;4.95;;;3.03;;
38717;SDS011;24468;52.128;9.278;2023-03-16T13:16:21;2.08;;;1.65;;
38717;SDS011;24468;52.128;9.278;2023-03-16T13:18:53;5.10;;;2.85;;
38717;SDS011;24468;52.128;9.278;2023-03-16T13:21:20;3.83;;;1.92;;
38717;SDS011;24468;52.128;9.278;2023-03-16T13:26:53;3.50;;;2.10;;
38717;SDS011;24468;52.128;9.278;2023-03-16T13:29:27;2.90;;;1.30;;
38717;SDS011;24468;52.128;9.278;2023-03-16T13:31:59;3.13;;;1.98;;
38717;SDS011;24468;52.128;9.278;2023-03-16T13:37:00;4.20;;;2.13;;
38717;SDS011;24468;52.128;9.278;2023-03-16T13:39:27;3.83;;;2.10;;
38717;SDS011;24468;52.128;9.278;2023-03-16T13:42:13;3.05;;;2.05;;
38717;SDS011;24468;52.128;9.278;2023-03-16T13:44:42;2.75;;;1.73;;
38717;SDS011;24468;52.128;9.278;2023-03-16T13:47:12;2.75;;;1.70;;
38717;SDS011;24468;52.128;9.278;2023-03-16T13:49:53;3.88;;;1.67;;
38717;SDS011;24468;52.128;9.278;2023-03-16T13:52:30;2.42;;;1.75;;
38717;SDS011;24468;52.128;9.278;2023-03-16T13:54:58;3.20;;;1.48;;
38717;SDS011;24468;52.128;9.278;2023-03-16T13:57:29;3.38;;;1.83;;
38717;SDS011;24468;52.128;9.278;2023-03-16T14:00:14;2.17;;;0.95;;
38717;SDS011;24468;52.128;9.278;2023-03-16T14:03:10;3.53;;;1.40;;
38717;SDS011;24468;52.128;9.278;2023-03-16T14:05:43;3.35;;;1.45;;
38717;SDS011;24468;52.128;9.278;2023-03-16T14:08:20;1.67;;;1.20;;
38717;SDS011;24468;52.128;9.278;2023-03-16T14:10:48;2.55;;;1.40;;
38717;SDS011;24468;52.128;9.278;2023-03-16T14:13:25;1.85;;;1.00;;
38717;SDS011;24468;52.128;9.278;2023-03-16T14:15:59;1.60;;;1.13;;
38717;SDS011;24468;52.128;9.278;2023-03-16T14:18:35;1.90;;;1.10;;
38717;SDS011;24468;52.128;9.278;2023-03-16T14:21:11;4.43;;;1.20;;
38717;SDS011;24468;52.128;9.278;2023-03-16T14:23:46;1.52;;;0.65;;
38717;SDS011;24468;52.128;9.278;2023-03-16T14:26:17;2.92;;;1.25;;
38717;SDS011;24468;52.128;9.278;2023-03-16T14:29:01;2.72;;;1.00;;
38717;SDS011;24468;52.128;9.278;2023-03-16T14:31:38;1.85;;;1.10;;
38717;SDS011;24468;52.128;9.278;2023-03-16T14:34:50;1.25;;;0.93;;
38717;SDS011;24468;52.128;9.278;2023-03-16T14:37:05;1.85;;;0.90;;
38717;SDS011;24468;52.128;9.278;2023-03-16T14:39:33;3.15;;;1.33;;
38717;SDS011;24468;52.128;9.278;2023-03-16T14:42:03;1.38;;;1.10;;
38717;SDS011;24468;52.128;9.278;2023-03-16T14:44:31;2.75;;;1.67;;
38717;SDS011;24468;52.128;9.278;2023-03-16T14:47:00;1.67;;;1.13;;
38717;SDS011;24468;52.128;9.278;2023-03-16T14:49:29;3.45;;;1.02;;
38717;SDS011;24468;52.128;9.278;2023-03-16T14:52:07;1.15;;;0.80;;
38717;SDS011;24468;52.128;9.278;2023-03-16T14:54:57;1.17;;;0.80;;
38717;SDS011;24468;52.128;9.278;2023-03-16T14:57:24;2.88;;;1.00;;
38717;SDS011;24468;52.128;9.278;2023-03-16T14:59:51;3.17;;;1.35;;
38717;SDS011;24468;52.128;9.278;2023-03-16T15:02:18;2.58;;;1.00;;
38717;SDS011;24468;52.128;9.278;2023-03-16T15:04:50;1.77;;;1.00;;
38717;SDS011;24468;52.128;9.278;2023-03-16T15:07:24;4.78;;;2.30;;
38717;SDS011;24468;52.128;9.278;2023-03-16T15:09:54;3.50;;;1.52;;
38717;SDS011;24468;52.128;9.278;2023-03-16T15:12:40;1.67;;;1.15;;
38717;SDS011;24468;52.128;9.278;2023-03-16T15:15:14;1.25;;;0.82;;
38717;SDS011;24468;52.128;9.278;2023-03-16T15:17:48;1.92;;;1.15;;
38717;SDS011;24468;52.128;9.278;2023-03-16T15:20:17;0.98;;;0.73;;
38717;SDS011;24468;52.128;9.278;2023-03-16T15:22:47;2.38;;;1.20;;
38717;SDS011;24468;52.128;9.278;2023-03-16T15:27:47;0.80;;;0.52;;
38717;SDS011;24468;52.128;9.278;2023-03-16T15:30:18;3.88;;;1.02;;
38717;SDS011;24468;52.128;9.278;2023-03-16T15:32:52;1.33;;;0.60;;
38717;SDS011;24468;52.128;9.278;2023-03-16T15:35:18;0.70;;;0.70;;
38717;SDS011;24468;52.128;9.278;2023-03-16T15:37:44;1.38;;;1.00;;
38717;SDS011;24468;52.128;9.278;2023-03-16T15:42:49;1.92;;;0.93;;
38717;SDS011;24468;52.128;9.278;2023-03-16T15:45:16;1.98;;;1.38;;
38717;SDS011;24468;52.128;9.278;2023-03-16T15:47:46;4.18;;;1.35;;
38717;SDS011;24468;52.128;9.278;2023-03-16T15:50:18;1.00;;;0.60;;
38717;SDS011;24468;52.128;9.278;2023-03-16T15:52:48;2.10;;;0.95;;
38717;SDS011;24468;52.128;9.278;2023-03-16T15:55:20;4.47;;;1.23;;
38717;SDS011;24468;52.128;9.278;2023-03-16T15:57:50;1.05;;;0.88;;
38717;SDS011;24468;52.128;9.278;2023-03-16T16:00:27;0.80;;;0.60;;
38717;SDS011;24468;52.128;9.278;2023-03-16T16:02:59;1.35;;;0.60;;
38717;SDS011;24468;52.128;9.278;2023-03-16T16:05:28;1.75;;;1.10;;
38717;SDS011;24468;52.128;9.278;2023-03-16T16:07:54;0.65;;;0.65;;
38717;SDS011;24468;52.128;9.278;2023-03-16T16:10:21;4.10;;;0.90;;
38717;SDS011;24468;52.128;9.278;2023-03-16T16:12:48;2.80;;;0.82;;
38717;SDS011;24468;52.128;9.278;2023-03-16T16:15:26;6.97;;;5.22;;
38717;SDS011;24468;52.128;9.278;2023-03-16T16:17:56;2.85;;;1.33;;
38717;SDS011;24468;52.128;9.278;2023-03-16T16:20:29;1.73;;;1.10;;
38717;SDS011;24468;52.128;9.278;2023-03-16T16:22:56;2.75;;;1.10;;
38717;SDS011;24468;52.128;9.278;2023-03-16T16:25:45;1.38;;;0.93;;